Time;durP1;ratioP1;P1;durP2;ratioP2;P2;SDS_P1;SDS_P2;PMS_P1;PMS_P2;Temp;Humidity;BMP_temperature;BMP_pressure;BME280_temperature;BME280_humidity;BME280_pressure;Samples;Min_cycle;Max_cycle;Signal;HPM_P1;HPM_P2
2023/09/04 00:01:43;;;;;;;;;;;;;;;;;;5116022;28;20007;-72
2023/09/04 00:04:09;;;;;;;;;;;;;;;;;;5115410;28;19919;-72
2023/09/04 00:06:35;;;;;;;;;;;;;;;;;;5097939;28;20010;-72
2023/09/04 00:09:01;;;;;;;;;;;;;;;;;;5115604;28;19920;-72
2023/09/04 00:11:27;;;;;;;;;;;;;;;;;;5114780;28;20344;-72
2023/09/04 00:13:53;;;;;;;;;;;;;;;;;;5114663;28;20011;-72
2023/09/04 00:16:19;;;;;;;;;;;;;;;;;;5115262;28;19919;-72
2023/09/04 00:18:45;;;;;;;;;;;;;;;;;;5114794;28;19974;-72
2023/09/04 00:21:11;;;;;;;;;;;;;;;;;;5115551;28;19919;-72
2023/09/04 00:23:37;;;;;;;;;;;;;;;;;;5114813;28;20026;-72
2023/09/04 00:26:03;;;;;;;;;;;;;;;;;;5099503;27;20341;-72
2023/09/04 00:28:29;;;;;;;;;;;;;;;;;;5117089;27;19924;-72
2023/09/04 00:30:56;;;;;;;;;;;;;;;;;;5118632;27;19927;-72
2023/09/04 00:33:22;;;;;;;;;;;;;;;;;;5117720;27;19962;-72
2023/09/04 00:35:48;;;;;;;;;;;;;;;;;;5118724;27;20008;-72
2023/09/04 00:38:14;;;;;;;;;;;;;;;;;;5118428;27;19920;-71
2023/09/04 00:40:40;;;;;;;;;;;;;;;;;;5118102;27;20038;-72
2023/09/04 00:43:06;;;;;;;;;;;;;;;;;;5117054;27;20006;-72
2023/09/04 00:45:32;;;;;;;;;;;;;;;;;;5117742;27;19919;-72
2023/09/04 00:47:58;;;;;;;;;;;;;;;;;;5136554;27;19919;-72
2023/09/04 00:50:24;;;;;;;;;;;;;;;;;;5117170;27;19923;-72
2023/09/04 00:52:50;;;;;;;;;;;;;;;;;;5101174;27;19964;-72
2023/09/04 00:55:16;;;;;;;;;;;;;;;;;;5101229;27;20002;-72
2023/09/04 00:57:42;;;;;;;;;;;;;;;;;;5117168;27;19927;-72
2023/09/04 01:00:12;;;;;;;;;;;;;;;;;;5117674;27;19926;-72
2023/09/04 01:02:39;;;;;;;;;;;;;;;;;;5117701;27;19919;-72
2023/09/04 01:05:04;;;;;;;;;;;;;;;;;;5117689;27;19968;-72
2023/09/04 01:07:30;;;;;;;;;;;;;;;;;;5117106;27;19927;-72
2023/09/04 01:09:56;;;;;;;;;;;;;;;;;;5100741;27;19926;-71
2023/09/04 01:12:22;;;;;;;;;;;;;;;;;;5116973;27;20052;-74
2023/09/04 01:14:48;;;;;;;;;;;;;;;;;;5117391;27;19927;-72
2023/09/04 01:17:14;;;;;;;;;;;;;;;;;;5117940;27;19970;-72
2023/09/04 01:19:40;;;;;;;;;;;;;;;;;;5116857;27;19919;-72
2023/09/04 01:22:06;;;;;;;;;;;;;;;;;;5135872;27;19923;-71
2023/09/04 01:24:32;;;;;;;;;;;;;;;;;;5117085;27;20272;-72
2023/09/04 01:26:58;;;;;;;;;;;;;;;;;;5116947;27;19926;-71
2023/09/04 01:29:24;;;;;;;;;;;;;;;;;;5116019;27;19919;-74
2023/09/04 01:31:50;;;;;;;;;;;;;;;;;;5117648;27;20352;-72
2023/09/04 01:34:16;;;;;;;;;;;;;;;;;;5100088;27;19919;-72
2023/09/04 01:36:42;;;;;;;;;;;;;;;;;;5116977;27;20014;-72
2023/09/04 01:39:09;;;;;;;;;;;;;;;;;;5117385;27;19942;-71
2023/09/04 01:41:35;;;;;;;;;;;;;;;;;;5116891;27;19987;-72
2023/09/04 01:44:01;;;;;;;;;;;;;;;;;;5116342;27;20376;-72
2023/09/04 01:46:27;;;;;;;;;;;;;;;;;;5116890;27;20362;-74
2023/09/04 01:48:53;;;;;;;;;;;;;;;;;;5134866;27;19919;-72
2023/09/04 01:51:18;;;;;;;;;;;;;;;;;;5116883;27;19920;-72
2023/09/04 01:53:44;;;;;;;;;;;;;;;;;;5116292;27;19919;-72
2023/09/04 01:56:10;;;;;;;;;;;;;;;;;;5116970;27;19920;-72
2023/09/04 01:58:36;;;;;;;;;;;;;;;;;;5115462;27;20006;-71
2023/09/04 02:01:02;;;;;;;;;;;;;;;;;;5117140;27;19919;-71
2023/09/04 02:03:28;;;;;;;;;;;;;;;;;;5115980;27;20639;-73
2023/09/04 02:05:54;;;;;;;;;;;;;;;;;;5117045;27;20014;-71
2023/09/04 02:08:20;;;;;;;;;;;;;;;;;;5116654;27;19919;-72
2023/09/04 02:10:46;;;;;;;;;;;;;;;;;;5116066;27;19920;-72
2023/09/04 02:13:12;;;;;;;;;;;;;;;;;;5115518;27;19926;-72
2023/09/04 02:15:38;;;;;;;;;;;;;;;;;;5116310;27;20357;-72
2023/09/04 02:18:04;;;;;;;;;;;;;;;;;;5099548;27;20371;-72
2023/09/04 02:20:30;;;;;;;;;;;;;;;;;;5115384;27;19919;-72
2023/09/04 02:22:56;;;;;;;;;;;;;;;;;;5116483;27;19927;-72
2023/09/04 02:25:22;;;;;;;;;;;;;;;;;;5116591;27;19919;-72
2023/09/04 02:27:48;;;;;;;;;;;;;;;;;;5114739;27;19923;-71
2023/09/04 02:30:14;;;;;;;;;;;;;;;;;;5115656;27;19942;-72
2023/09/04 02:32:40;;;;;;;;;;;;;;;;;;5115880;27;19919;-72
2023/09/04 02:35:06;;;;;;;;;;;;;;;;;;5115866;27;19959;-72
2023/09/04 02:37:32;;;;;;;;;;;;;;;;;;5115634;27;20005;-72
2023/09/04 02:39:58;;;;;;;;;;;;;;;;;;5099037;27;20034;-72
2023/09/04 02:42:23;;;;;;;;;;;;;;;;;;5115594;27;19919;-72
2023/09/04 02:44:49;;;;;;;;;;;;;;;;;;5115121;27;19923;-72
2023/09/04 02:47:15;;;;;;;;;;;;;;;;;;5134293;27;20378;-72
2023/09/04 02:49:42;;;;;;;;;;;;;;;;;;5114626;27;19919;-72
2023/09/04 02:52:08;;;;;;;;;;;;;;;;;;5116070;27;19972;-71
2023/09/04 02:54:34;;;;;;;;;;;;;;;;;;5133467;27;19919;-72
2023/09/04 02:57:00;;;;;;;;;;;;;;;;;;5115887;27;19926;-72
2023/09/04 02:59:26;;;;;;;;;;;;;;;;;;5114842;27;19923;-72
2023/09/04 03:01:52;;;;;;;;;;;;;;;;;;5115445;27;19930;-72
2023/09/04 03:04:18;;;;;;;;;;;;;;;;;;5115450;27;19919;-71
2023/09/04 03:06:44;;;;;;;;;;;;;;;;;;5098263;27;20064;-72
2023/09/04 03:09:10;;;;;;;;;;;;;;;;;;5115588;27;19919;-72
2023/09/04 03:11:36;;;;;;;;;;;;;;;;;;5097752;27;19919;-71
2023/09/04 03:14:02;;;;;;;;;;;;;;;;;;5114568;27;19919;-72
2023/09/04 03:16:28;;;;;;;;;;;;;;;;;;5115742;27;20018;-72
2023/09/04 03:18:54;;;;;;;;;;;;;;;;;;5097792;27;19922;-72
2023/09/04 03:21:20;;;;;;;;;;;;;;;;;;5098627;28;20014;-72
2023/09/04 03:23:47;;;;;;;;;;;;;;;;;;5114794;27;19966;-72
2023/09/04 03:26:13;;;;;;;;;;;;;;;;;;5115256;27;19926;-72
2023/09/04 03:28:39;;;;;;;;;;;;;;;;;;5113820;27;19919;-71
2023/09/04 03:31:05;;;;;;;;;;;;;;;;;;5114421;27;19970;-72
2023/09/04 03:33:31;;;;;;;;;;;;;;;;;;5114938;27;19923;-72
2023/09/04 03:35:57;;;;;;;;;;;;;;;;;;5114988;28;19927;-71
2023/09/04 03:38:24;;;;;;;;;;;;;;;;;;5115192;28;19926;-72
2023/09/04 03:40:50;;;;;;;;;;;;;;;;;;5114902;28;19926;-72
2023/09/04 03:43:16;;;;;;;;;;;;;;;;;;5114059;28;20005;-72
2023/09/04 03:45:42;;;;;;;;;;;;;;;;;;5114556;28;19927;-71
2023/09/04 03:48:07;;;;;;;;;;;;;;;;;;5115333;28;19968;-72
2023/09/04 03:50:35;;;;;;;;;;;;;;;;;;5114590;28;19974;-71
2023/09/04 03:53:01;;;;;;;;;;;;;;;;;;5114659;28;19926;-72
2023/09/04 03:55:27;;;;;;;;;;;;;;;;;;5115224;28;19923;-72
2023/09/04 03:57:53;;;;;;;;;;;;;;;;;;5132202;28;19919;-72
2023/09/04 04:00:20;;;;;;;;;;;;;;;;;;5114642;28;19923;-72
2023/09/04 04:02:46;;;;;;;;;;;;;;;;;;5114625;28;19919;-72
2023/09/04 04:05:12;;;;;;;;;;;;;;;;;;5114653;28;20279;-72
2023/09/04 04:07:38;;;;;;;;;;;;;;;;;;5114772;28;19920;-74
2023/09/04 04:10:04;;;;;;;;;;;;;;;;;;5114593;28;20410;-71
2023/09/04 04:12:31;;;;;;;;;;;;;;;;;;5114460;28;20424;-72
2023/09/04 04:14:57;;;;;;;;;;;;;;;;;;5114076;28;19927;-72
2023/09/04 04:17:23;;;;;;;;;;;;;;;;;;5098188;28;20269;-71
2023/09/04 04:19:53;;;;;;;;;;;;;;;;;;5114044;28;19926;-72
2023/09/04 04:22:19;;;;;;;;;;;;;;;;;;5114919;28;19969;-72
2023/09/04 04:24:45;;;;;;;;;;;;;;;;;;5114248;28;19919;-72
2023/09/04 04:27:12;;;;;;;;;;;;;;;;;;5114035;28;19967;-72
2023/09/04 04:29:38;;;;;;;;;;;;;;;;;;5114020;28;20328;-72
2023/09/04 04:32:04;;;;;;;;;;;;;;;;;;5114347;28;20005;-71
2023/09/04 04:34:30;;;;;;;;;;;;;;;;;;5114362;28;20344;-72
2023/09/04 04:36:56;;;;;;;;;;;;;;;;;;5114214;28;20376;-72
2023/09/04 04:39:22;;;;;;;;;;;;;;;;;;5114682;28;20411;-71
2023/09/04 04:41:48;;;;;;;;;;;;;;;;;;5114866;27;19926;-71
2023/09/04 04:44:14;;;;;;;;;;;;;;;;;;5117609;27;20271;-72
2023/09/04 04:46:40;;;;;;;;;;;;;;;;;;5101602;27;19926;-71
2023/09/04 04:49:06;;;;;;;;;;;;;;;;;;5117481;27;20002;-72
2023/09/04 04:51:32;;;;;;;;;;;;;;;;;;5117738;27;20009;-72
2023/09/04 04:53:58;;;;;;;;;;;;;;;;;;5117308;27;19964;-72
2023/09/04 04:56:24;;;;;;;;;;;;;;;;;;5118278;27;19926;-71
2023/09/04 04:58:50;;;;;;;;;;;;;;;;;;5116410;27;20371;-72
2023/09/04 05:01:16;;;;;;;;;;;;;;;;;;5123015;27;19931;-72
2023/09/04 05:03:42;;;;;;;;;;;;;;;;;;5117596;27;20033;-72
2023/09/04 05:06:08;;;;;;;;;;;;;;;;;;5135679;27;19919;-71
2023/09/04 05:08:34;;;;;;;;;;;;;;;;;;5117908;27;20383;-72
2023/09/04 05:11:00;;;;;;;;;;;;;;;;;;5117347;27;20292;-72
2023/09/04 05:13:26;;;;;;;;;;;;;;;;;;5116813;27;19920;-72
2023/09/04 05:15:52;;;;;;;;;;;;;;;;;;5117461;27;19926;-72
2023/09/04 05:18:18;;;;;;;;;;;;;;;;;;5100098;27;20059;-71
2023/09/04 05:20:44;;;;;;;;;;;;;;;;;;5117941;27;19919;-72
2023/09/04 05:23:10;;;;;;;;;;;;;;;;;;5135527;27;19919;-71
2023/09/04 05:25:36;;;;;;;;;;;;;;;;;;5117562;27;20379;-72
2023/09/04 05:28:02;;;;;;;;;;;;;;;;;;5115344;27;19919;-72
2023/09/04 05:30:28;;;;;;;;;;;;;;;;;;5100498;27;20431;-72
2023/09/04 05:32:54;;;;;;;;;;;;;;;;;;5117141;27;19962;-71
2023/09/04 05:35:21;;;;;;;;;;;;;;;;;;5117043;27;19965;-72
2023/09/04 05:37:47;;;;;;;;;;;;;;;;;;5117269;27;19972;-74
2023/09/04 05:40:13;;;;;;;;;;;;;;;;;;5117182;27;19925;-72
2023/09/04 05:42:39;;;;;;;;;;;;;;;;;;5099791;27;19941;-72
2023/09/04 05:45:06;;;;;;;;;;;;;;;;;;5116345;27;20346;-72
2023/09/04 05:47:32;;;;;;;;;;;;;;;;;;5117447;27;19919;-72
2023/09/04 05:49:58;;;;;;;;;;;;;;;;;;5116017;27;19927;-71
2023/09/04 05:52:24;;;;;;;;;;;;;;;;;;5117063;27;19964;-72
2023/09/04 05:54:50;;;;;;;;;;;;;;;;;;5115706;27;20279;-74
2023/09/04 05:57:16;;;;;;;;;;;;;;;;;;5116539;27;19972;-72
2023/09/04 05:59:46;;;;;;;;;;;;;;;;;;5116487;27;19930;-72
2023/09/04 06:02:12;;;;;;;;;;;;;;;;;;5134412;27;20026;-71
2023/09/04 06:04:38;;;;;;;;;;;;;;;;;;5116243;27;19975;-72
2023/09/04 06:07:05;;;;;;;;;;;;;;;;;;5116376;27;19926;-72
2023/09/04 06:09:31;;;;;;;;;;;;;;;;;;5099642;27;19926;-72
2023/09/04 06:11:57;;;;;;;;;;;;;;;;;;5116080;27;19919;-72
2023/09/04 06:14:22;;;;;;;;;;;;;;;;;;5098704;27;19964;-72
2023/09/04 06:16:48;;;;;;;;;;;;;;;;;;5116785;27;19919;-72
2023/09/04 06:19:14;;;;;;;;;;;;;;;;;;5115668;27;19965;-72
2023/09/04 06:21:40;;;;;;;;;;;;;;;;;;5116547;27;20349;-72
2023/09/04 06:24:06;;;;;;;;;;;;;;;;;;5115897;27;20269;-72
2023/09/04 06:26:32;;;;;;;;;;;;;;;;;;5116134;27;19923;-72
2023/09/04 06:28:58;;;;;;;;;;;;;;;;;;5114952;27;19923;-72
2023/09/04 06:31:24;;;;;;;;;;;;;;;;;;5116176;27;19926;-72
2023/09/04 06:33:50;;;;;;;;;;;;;;;;;;5115898;27;19919;-72
2023/09/04 06:36:16;;;;;;;;;;;;;;;;;;5134072;27;20013;-72
2023/09/04 06:38:42;;;;;;;;;;;;;;;;;;5116235;28;19975;-72
2023/09/04 06:41:08;;;;;;;;;;;;;;;;;;5115646;27;19920;-72
2023/09/04 06:43:34;;;;;;;;;;;;;;;;;;5115178;27;19923;-72
2023/09/04 06:46:01;;;;;;;;;;;;;;;;;;5115659;27;19919;-72
2023/09/04 06:48:27;;;;;;;;;;;;;;;;;;5115723;27;19923;-72
2023/09/04 06:50:53;;;;;;;;;;;;;;;;;;5115691;27;19927;-74
2023/09/04 06:53:20;;;;;;;;;;;;;;;;;;5115616;27;19968;-72
2023/09/04 06:55:46;;;;;;;;;;;;;;;;;;5099091;27;19919;-72
2023/09/04 06:58:12;;;;;;;;;;;;;;;;;;5114327;27;19919;-72
2023/09/04 07:00:38;;;;;;;;;;;;;;;;;;5115575;27;19927;-72
2023/09/04 07:03:04;;;;;;;;;;;;;;;;;;5115376;27;19919;-72
2023/09/04 07:05:30;;;;;;;;;;;;;;;;;;5115291;27;19927;-72
2023/09/04 07:07:56;;;;;;;;;;;;;;;;;;5115452;27;19923;-74
2023/09/04 07:10:22;;;;;;;;;;;;;;;;;;5115141;27;20329;-72
2023/09/04 07:12:48;;;;;;;;;;;;;;;;;;5098051;27;19930;-72
2023/09/04 07:15:14;;;;;;;;;;;;;;;;;;5132837;27;19964;-72
2023/09/04 07:17:39;;;;;;;;;;;;;;;;;;5115742;28;19919;-72
2023/09/04 07:20:05;;;;;;;;;;;;;;;;;;5114619;27;20056;-72
2023/09/04 07:22:31;;;;;;;;;;;;;;;;;;5133548;27;19919;-72
2023/09/04 07:24:57;;;;;;;;;;;;;;;;;;5114820;27;19923;-74
2023/09/04 07:27:25;;;;;;;;;;;;;;;;;;5118529;27;19919;-72
2023/09/04 07:29:51;;;;;;;;;;;;;;;;;;5118062;27;19942;-72
2023/09/04 07:32:17;;;;;;;;;;;;;;;;;;5135201;27;20367;-72
2023/09/04 07:34:43;;;;;;;;;;;;;;;;;;5118304;27;20364;-72
2023/09/04 07:37:09;;;;;;;;;;;;;;;;;;5135370;27;19976;-72
2023/09/04 07:39:35;;;;;;;;;;;;;;;;;;5118773;27;19969;-72
2023/09/04 07:42:01;;;;;;;;;;;;;;;;;;5135232;27;19974;-73
2023/09/04 07:44:27;;;;;;;;;;;;;;;;;;5134788;27;20342;-72
2023/09/04 07:46:53;;;;;;;;;;;;;;;;;;5118797;27;19919;-72
2023/09/04 07:49:18;;;;;;;;;;;;;;;;;;5134810;27;20477;-72
2023/09/04 07:51:44;;;;;;;;;;;;;;;;;;5135439;27;20041;-72
2023/09/04 07:54:13;;;;;;;;;;;;;;;;;;5135049;27;19919;-72
2023/09/04 07:56:39;;;;;;;;;;;;;;;;;;5135690;27;20374;-72
2023/09/04 07:59:05;;;;;;;;;;;;;;;;;;5134149;27;20014;-72
2023/09/04 08:01:32;;;;;;;;;;;;;;;;;;5135867;27;19919;-72
2023/09/04 08:03:58;;;;;;;;;;;;;;;;;;5135190;27;19918;-72
2023/09/04 08:06:24;;;;;;;;;;;;;;;;;;5135141;27;19919;-72
2023/09/04 08:08:52;;;;;;;;;;;;;;;;;;5135440;27;19980;-73
2023/09/04 08:11:18;;;;;;;;;;;;;;;;;;5134671;27;19930;-72
2023/09/04 08:13:44;;;;;;;;;;;;;;;;;;5134508;27;20024;-72
2023/09/04 08:16:10;;;;;;;;;;;;;;;;;;5153455;27;20013;-72
2023/09/04 08:18:35;;;;;;;;;;;;;;;;;;5138899;27;19922;-72
2023/09/04 08:21:02;;;;;;;;;;;;;;;;;;5139617;27;19919;-73
2023/09/04 08:23:27;;;;;;;;;;;;;;;;;;5138683;27;19927;-72
2023/09/04 08:25:53;;;;;;;;;;;;;;;;;;5139634;27;19919;-72
2023/09/04 08:28:19;;;;;;;;;;;;;;;;;;5120097;27;19929;-72
2023/09/04 08:30:45;;;;;;;;;;;;;;;;;;5139180;27;19919;-72
2023/09/04 08:33:11;;;;;;;;;;;;;;;;;;5121728;27;19919;-72
2023/09/04 08:35:37;;;;;;;;;;;;;;;;;;5138819;27;19923;-72
2023/09/04 08:38:05;;;;;;;;;;;;;;;;;;5139016;27;20275;-75
2023/09/04 08:40:31;;;;;;;;;;;;;;;;;;5139338;27;19919;-72
2023/09/04 08:42:57;;;;;;;;;;;;;;;;;;5138455;27;20276;-74
2023/09/04 08:45:23;;;;;;;;;;;;;;;;;;5138247;27;19919;-72
2023/09/04 08:47:49;;;;;;;;;;;;;;;;;;5139173;27;20003;-72
2023/09/04 08:50:15;;;;;;;;;;;;;;;;;;5137894;27;19919;-72
2023/09/04 08:52:41;;;;;;;;;;;;;;;;;;5138952;27;19923;-72
2023/09/04 08:55:07;;;;;;;;;;;;;;;;;;5138491;27;19919;-75
2023/09/04 08:57:33;;;;;;;;;;;;;;;;;;5138343;27;19929;-72
2023/09/04 08:59:59;;;;;;;;;;;;;;;;;;5138271;27;20013;-72
2023/09/04 09:02:25;;;;;;;;;;;;;;;;;;5121165;27;19973;-72
2023/09/04 09:04:51;;;;;;;;;;;;;;;;;;5121125;27;19971;-72
2023/09/04 09:07:17;;;;;;;;;;;;;;;;;;5120998;27;19923;-72
2023/09/04 09:09:43;;;;;;;;;;;;;;;;;;5138461;27;19926;-72
2023/09/04 09:12:09;;;;;;;;;;;;;;;;;;5138021;27;19926;-74
2023/09/04 09:14:35;;;;;;;;;;;;;;;;;;5137338;27;19919;-73
2023/09/04 09:17:01;;;;;;;;;;;;;;;;;;5138561;27;19970;-72
2023/09/04 09:19:27;;;;;;;;;;;;;;;;;;5137493;27;19919;-72
2023/09/04 09:21:55;;;;;;;;;;;;;;;;;;5138375;27;20391;-72
2023/09/04 09:24:21;;;;;;;;;;;;;;;;;;5137697;27;19922;-72
2023/09/04 09:26:47;;;;;;;;;;;;;;;;;;5137895;27;20421;-72
2023/09/04 09:29:13;;;;;;;;;;;;;;;;;;5135450;27;19919;-73
2023/09/04 09:31:39;;;;;;;;;;;;;;;;;;5138020;27;20375;-72
2023/09/04 09:34:05;;;;;;;;;;;;;;;;;;5120351;27;19927;-72
2023/09/04 09:36:31;;;;;;;;;;;;;;;;;;5137628;27;19919;-72
2023/09/04 09:38:57;;;;;;;;;;;;;;;;;;5137990;27;20287;-72
2023/09/04 09:41:23;;;;;;;;;;;;;;;;;;5137469;27;19919;-72
2023/09/04 09:43:49;;;;;;;;;;;;;;;;;;5136978;27;20370;-72
2023/09/04 09:46:16;;;;;;;;;;;;;;;;;;5137454;27;20268;-72
2023/09/04 09:48:42;;;;;;;;;;;;;;;;;;5137503;27;19930;-72
2023/09/04 09:51:10;;;;;;;;;;;;;;;;;;5137488;27;19918;-73
2023/09/04 09:53:36;;;;;;;;;;;;;;;;;;5137192;27;19919;-72
2023/09/04 09:56:02;;;;;;;;;;;;;;;;;;5137508;27;19944;-73
2023/09/04 09:58:28;;;;;;;;;;;;;;;;;;5136118;27;19923;-72
2023/09/04 10:00:54;;;;;;;;;;;;;;;;;;5137743;27;20234;-72
2023/09/04 10:03:20;;;;;;;;;;;;;;;;;;5136234;27;20355;-73
2023/09/04 10:05:46;;;;;;;;;;;;;;;;;;5137616;27;19919;-72
2023/09/04 10:08:12;;;;;;;;;;;;;;;;;;5136697;27;20260;-75
2023/09/04 10:10:38;;;;;;;;;;;;;;;;;;5137186;27;19922;-72
2023/09/04 10:13:03;;;;;;;;;;;;;;;;;;5136340;27;19926;-72
2023/09/04 10:15:29;;;;;;;;;;;;;;;;;;5136841;27;19919;-73
2023/09/04 10:17:55;;;;;;;;;;;;;;;;;;5137065;27;19968;-72
2023/09/04 10:20:21;;;;;;;;;;;;;;;;;;5136259;27;19919;-72
2023/09/04 10:22:47;;;;;;;;;;;;;;;;;;5137032;27;19929;-72
2023/09/04 10:25:13;;;;;;;;;;;;;;;;;;5136897;27;20356;-75
2023/09/04 10:27:40;;;;;;;;;;;;;;;;;;5136236;27;19969;-72
2023/09/04 10:30:06;;;;;;;;;;;;;;;;;;5136422;27;19918;-72
2023/09/04 10:32:33;;;;;;;;;;;;;;;;;;5119382;27;19926;-73
2023/09/04 10:34:59;;;;;;;;;;;;;;;;;;5136540;27;20009;-73
2023/09/04 10:37:25;;;;;;;;;;;;;;;;;;5135995;27;20454;-73
2023/09/04 10:39:51;;;;;;;;;;;;;;;;;;5119384;27;20023;-72
2023/09/04 10:42:17;;;;;;;;;;;;;;;;;;5118611;27;19918;-73
2023/09/04 10:44:42;;;;;;;;;;;;;;;;;;5154615;27;20424;-72
2023/09/04 10:47:08;;;;;;;;;;;;;;;;;;5136880;27;20367;-73
2023/09/04 10:49:35;;;;;;;;;;;;;;;;;;5135621;27;20010;-73
2023/09/04 10:52:00;;;;;;;;;;;;;;;;;;5136715;27;20010;-72
2023/09/04 10:54:27;;;;;;;;;;;;;;;;;;5135872;27;20332;-73
2023/09/04 10:56:53;;;;;;;;;;;;;;;;;;5119342;27;19919;-73
2023/09/04 10:59:19;;;;;;;;;;;;;;;;;;5135090;27;19926;-73
2023/09/04 11:01:45;;;;;;;;;;;;;;;;;;5136584;27;19926;-73
2023/09/04 11:04:11;;;;;;;;;;;;;;;;;;5135990;27;19919;-73
2023/09/04 11:06:37;;;;;;;;;;;;;;;;;;5118844;27;19922;-73
2023/09/04 11:09:03;;;;;;;;;;;;;;;;;;5135956;27;19919;-73
2023/09/04 11:11:29;;;;;;;;;;;;;;;;;;5118192;27;19923;-73
2023/09/04 11:13:55;;;;;;;;;;;;;;;;;;5135301;27;20006;-73
2023/09/04 11:16:21;;;;;;;;;;;;;;;;;;5135815;27;19919;-73
2023/09/04 11:18:47;;;;;;;;;;;;;;;;;;5135909;27;20523;-73
2023/09/04 11:21:14;;;;;;;;;;;;;;;;;;5136098;27;20279;-73
2023/09/04 11:23:40;;;;;;;;;;;;;;;;;;5135488;27;19923;-73
2023/09/04 11:26:06;;;;;;;;;;;;;;;;;;5135878;27;19926;-73
2023/09/04 11:28:32;;;;;;;;;;;;;;;;;;5133616;27;19919;-73
2023/09/04 11:30:58;;;;;;;;;;;;;;;;;;5135763;27;19977;-74
2023/09/04 11:33:24;;;;;;;;;;;;;;;;;;5134886;27;19925;-74
2023/09/04 11:35:49;;;;;;;;;;;;;;;;;;5154264;27;19918;-74
2023/09/04 11:38:15;;;;;;;;;;;;;;;;;;5135439;27;19967;-74
2023/09/04 11:40:41;;;;;;;;;;;;;;;;;;5135191;27;19919;-74
2023/09/04 11:43:07;;;;;;;;;;;;;;;;;;5134742;27;19922;-74
2023/09/04 11:45:33;;;;;;;;;;;;;;;;;;5135324;27;19919;-75
2023/09/04 11:47:59;;;;;;;;;;;;;;;;;;5118778;27;19919;-74
2023/09/04 11:50:25;;;;;;;;;;;;;;;;;;5134577;27;19919;-75
2023/09/04 11:52:51;;;;;;;;;;;;;;;;;;5138393;27;19919;-74
2023/09/04 11:55:17;;;;;;;;;;;;;;;;;;5140047;27;20013;-75
2023/09/04 11:57:43;;;;;;;;;;;;;;;;;;5138931;27;19970;-75
2023/09/04 12:00:09;;;;;;;;;;;;;;;;;;5122310;27;19919;-75
2023/09/04 12:02:42;;;;;;;;;;;;;;;;;;5139484;27;19919;-75
2023/09/04 12:05:08;;;;;;;;;;;;;;;;;;5139543;27;20390;-75
2023/09/04 12:07:34;;;;;;;;;;;;;;;;;;5138990;27;19926;-75
2023/09/04 12:09:59;;;;;;;;;;;;;;;;;;5139623;27;19919;-75
2023/09/04 12:12:25;;;;;;;;;;;;;;;;;;5138585;27;19919;-75
2023/09/04 12:14:51;;;;;;;;;;;;;;;;;;5139273;27;19926;-75
2023/09/04 12:17:17;;;;;;;;;;;;;;;;;;5139772;27;19922;-75
2023/09/04 12:19:43;;;;;;;;;;;;;;;;;;5138632;27;20041;-75
2023/09/04 12:22:09;;;;;;;;;;;;;;;;;;5139529;27;19919;-75
2023/09/04 12:24:35;;;;;;;;;;;;;;;;;;5139087;27;19919;-75
2023/09/04 12:27:01;;;;;;;;;;;;;;;;;;5139177;27;19941;-75
2023/09/04 12:29:27;;;;;;;;;;;;;;;;;;5137521;27;19923;-75
2023/09/04 12:31:53;;;;;;;;;;;;;;;;;;5139155;27;19926;-75
2023/09/04 12:34:19;;;;;;;;;;;;;;;;;;5121753;27;20398;-75
2023/09/04 12:36:45;;;;;;;;;;;;;;;;;;5138774;27;19997;-75
2023/09/04 12:39:11;;;;;;;;;;;;;;;;;;5139112;27;19919;-75
2023/09/04 12:41:37;;;;;;;;;;;;;;;;;;5138603;27;19966;-75
2023/09/04 12:44:03;;;;;;;;;;;;;;;;;;5137818;27;19923;-75
2023/09/04 12:46:29;;;;;;;;;;;;;;;;;;5138689;27;19919;-75
2023/09/04 12:48:55;;;;;;;;;;;;;;;;;;5138717;27;19919;-75
2023/09/04 12:51:21;;;;;;;;;;;;;;;;;;5138712;27;19971;-75
2023/09/04 12:53:47;;;;;;;;;;;;;;;;;;5138360;27;20090;-75
2023/09/04 12:56:13;;;;;;;;;;;;;;;;;;5138598;27;20010;-75
2023/09/04 12:58:39;;;;;;;;;;;;;;;;;;5137296;27;19926;-75
2023/09/04 13:01:06;;;;;;;;;;;;;;;;;;5138689;27;20014;-74
2023/09/04 13:03:32;;;;;;;;;;;;;;;;;;5137476;27;19926;-76
2023/09/04 13:05:58;;;;;;;;;;;;;;;;;;5138891;27;19919;-75
2023/09/04 13:08:24;;;;;;;;;;;;;;;;;;5121309;27;19979;-74
2023/09/04 13:10:50;;;;;;;;;;;;;;;;;;5138300;27;20275;-74
2023/09/04 13:13:16;;;;;;;;;;;;;;;;;;5137411;27;19926;-74
2023/09/04 13:15:42;;;;;;;;;;;;;;;;;;5138211;27;19930;-75
2023/09/04 13:18:08;;;;;;;;;;;;;;;;;;5138283;27;19923;-75
2023/09/04 13:20:35;;;;;;;;;;;;;;;;;;5137356;27;20383;-75
2023/09/04 13:23:01;;;;;;;;;;;;;;;;;;5138254;27;20350;-75
2023/09/04 13:25:27;;;;;;;;;;;;;;;;;;5121244;27;19919;-76
2023/09/04 13:27:53;;;;;;;;;;;;;;;;;;5136895;27;20397;-75
2023/09/04 13:30:18;;;;;;;;;;;;;;;;;;5120532;27;19926;-75
2023/09/04 13:32:44;;;;;;;;;;;;;;;;;;5137503;27;19919;-74
2023/09/04 13:35:10;;;;;;;;;;;;;;;;;;5137668;27;20013;-75
2023/09/04 13:37:36;;;;;;;;;;;;;;;;;;5137579;27;19919;-75
2023/09/04 13:40:03;;;;;;;;;;;;;;;;;;5137918;27;19967;-74
2023/09/04 13:42:30;;;;;;;;;;;;;;;;;;5137028;27;19967;-77
2023/09/04 13:44:57;;;;;;;;;;;;;;;;;;5137491;27;19926;-75
2023/09/04 13:47:25;;;;;;;;;;;;;;;;;;5137791;27;19977;-74
2023/09/04 13:49:51;;;;;;;;;;;;;;;;;;5136557;27;20451;-75
2023/09/04 13:52:17;;;;;;;;;;;;;;;;;;5137775;27;19931;-75
2023/09/04 13:54:43;;;;;;;;;;;;;;;;;;5137203;27;20348;-74
2023/09/04 13:57:09;;;;;;;;;;;;;;;;;;5120526;27;20313;-74
2023/09/04 13:59:35;;;;;;;;;;;;;;;;;;5136206;27;19919;-75
2023/09/04 14:02:02;;;;;;;;;;;;;;;;;;5137319;27;19919;-74
2023/09/04 14:04:28;;;;;;;;;;;;;;;;;;5137172;27;19972;-74
2023/09/04 14:06:54;;;;;;;;;;;;;;;;;;5137071;27;19923;-74
2023/09/04 14:09:20;;;;;;;;;;;;;;;;;;5137389;27;19991;-75
2023/09/04 14:11:46;;;;;;;;;;;;;;;;;;5136481;27;19919;-74
2023/09/04 14:14:12;;;;;;;;;;;;;;;;;;5135860;27;19923;-75
2023/09/04 14:16:37;;;;;;;;;;;;;;;;;;5136818;27;19930;-74
2023/09/04 14:19:03;;;;;;;;;;;;;;;;;;5136897;27;19919;-74
2023/09/04 14:21:29;;;;;;;;;;;;;;;;;;5136944;27;19919;-75
2023/09/04 14:23:55;;;;;;;;;;;;;;;;;;5136643;27;20006;-75
2023/09/04 14:26:21;;;;;;;;;;;;;;;;;;5137089;27;19919;-74
2023/09/04 14:28:47;;;;;;;;;;;;;;;;;;5135167;27;20000;-74
2023/09/04 14:31:17;;;;;;;;;;;;;;;;;;5137131;27;19919;-75
2023/09/04 14:33:43;;;;;;;;;;;;;;;;;;5136048;27;19919;-75
2023/09/04 14:36:09;;;;;;;;;;;;;;;;;;5137058;27;20370;-75
2023/09/04 14:38:37;;;;;;;;;;;;;;;;;;5136327;27;20275;-77
2023/09/04 14:41:04;;;;;;;;;;;;;;;;;;5136451;27;19918;-74
2023/09/04 14:43:30;;;;;;;;;;;;;;;;;;5135670;27;19918;-74
2023/09/04 14:45:56;;;;;;;;;;;;;;;;;;5136327;27;20467;-74
2023/09/04 14:48:22;;;;;;;;;;;;;;;;;;5136274;27;19919;-75
2023/09/04 14:50:48;;;;;;;;;;;;;;;;;;5136279;27;19958;-74
2023/09/04 14:53:13;;;;;;;;;;;;;;;;;;5136406;27;19919;-74
2023/09/04 14:55:39;;;;;;;;;;;;;;;;;;5136153;27;19926;-74
2023/09/04 14:58:05;;;;;;;;;;;;;;;;;;5135475;27;19926;-74
2023/09/04 15:00:31;;;;;;;;;;;;;;;;;;5136349;27;19958;-74
2023/09/04 15:02:57;;;;;;;;;;;;;;;;;;5118810;27;19974;-74
2023/09/04 15:05:23;;;;;;;;;;;;;;;;;;5118873;27;19942;-74
2023/09/04 15:07:49;;;;;;;;;;;;;;;;;;5154057;27;19926;-74
2023/09/04 15:10:15;;;;;;;;;;;;;;;;;;5136321;27;20013;-74
2023/09/04 15:12:41;;;;;;;;;;;;;;;;;;5134861;27;19919;-74
2023/09/04 15:15:07;;;;;;;;;;;;;;;;;;5135818;27;19960;-74
2023/09/04 15:17:33;;;;;;;;;;;;;;;;;;5136345;27;20341;-73
2023/09/04 15:19:59;;;;;;;;;;;;;;;;;;5135164;27;19922;-74
2023/09/04 15:22:25;;;;;;;;;;;;;;;;;;5136043;27;19926;-74
2023/09/04 15:24:51;;;;;;;;;;;;;;;;;;5135609;27;19919;-74
2023/09/04 15:27:17;;;;;;;;;;;;;;;;;;5134109;27;19925;-74
2023/09/04 15:29:43;;;;;;;;;;;;;;;;;;5133793;27;19987;-74
2023/09/04 15:32:09;;;;;;;;;;;;;;;;;;5126274;27;19919;-75
2023/09/04 15:34:37;;;;;;;;;;;;;;;;;;5128672;27;19919;-72
2023/09/04 15:37:03;;;;;;;;;;;;;;;;;;5130852;27;20002;-73
2023/09/04 15:39:29;;;;;;;;;;;;;;;;;;5153602;27;19962;-73
2023/09/04 15:41:55;;;;;;;;;;;;;;;;;;5134996;27;19986;-72
2023/09/04 15:44:21;;;;;;;;;;;;;;;;;;5127821;27;19926;-74
2023/09/04 15:46:48;;;;;;;;;;;;;;;;;;5129335;28;19920;-74
2023/09/04 15:49:14;;;;;;;;;;;;;;;;;;5114095;28;19919;-75
2023/09/04 15:51:40;;;;;;;;;;;;;;;;;;5115159;28;20411;-76
2023/09/04 15:54:06;;;;;;;;;;;;;;;;;;5124854;27;19918;-73
2023/09/04 15:56:31;;;;;;;;;;;;;;;;;;5128003;28;19923;-73
2023/09/04 15:58:57;;;;;;;;;;;;;;;;;;5114167;28;19930;-74
2023/09/04 16:01:23;;;;;;;;;;;;;;;;;;5126048;27;19919;-73
2023/09/04 16:03:49;;;;;;;;;;;;;;;;;;5122465;28;20344;-73
2023/09/04 16:06:15;;;;;;;;;;;;;;;;;;5131595;27;20371;-73
2023/09/04 16:08:41;;;;;;;;;;;;;;;;;;5125310;27;20271;-71
2023/09/04 16:11:07;;;;;;;;;;;;;;;;;;5141034;27;20268;-69
2023/09/04 16:13:33;;;;;;;;;;;;;;;;;;5151896;27;19919;-70
2023/09/04 16:15:59;;;;;;;;;;;;;;;;;;5146301;27;19926;-70
2023/09/04 16:18:25;;;;;;;;;;;;;;;;;;5151692;27;19923;-69
2023/09/04 16:20:51;;;;;;;;;;;;;;;;;;5118506;27;19987;-70
2023/09/04 16:23:18;;;;;;;;;;;;;;;;;;5140729;27;20364;-69
2023/09/04 16:25:44;;;;;;;;;;;;;;;;;;5144536;27;19919;-72
2023/09/04 16:28:11;;;;;;;;;;;;;;;;;;5125035;27;19926;-69
2023/09/04 16:30:37;;;;;;;;;;;;;;;;;;5144919;27;19918;-70
2023/09/04 16:33:10;;;;;;;;;;;;;;;;;;5146632;27;19926;-74
2023/09/04 16:35:36;;;;;;;;;;;;;;;;;;5130386;28;19926;-69
2023/09/04 16:38:03;;;;;;;;;;;;;;;;;;5146214;27;19919;-69